sensor_id;sensor_type;location;lat;lon;timestamp;P1;durP1;ratioP1;P2;durP2;ratioP2
71679;SDS011;59512;42.662;23.254;2022-12-29T00:01:27;58.88;;;36.90;;
71679;SDS011;59512;42.662;23.254;2022-12-29T00:03:52;61.10;;;38.83;;
71679;SDS011;59512;42.662;23.254;2022-12-29T00:06:17;61.83;;;38.10;;
71679;SDS011;59512;42.662;23.254;2022-12-29T00:08:43;61.13;;;37.47;;
71679;SDS011;59512;42.662;23.254;2022-12-29T00:11:09;55.90;;;36.00;;
71679;SDS011;59512;42.662;23.254;2022-12-29T00:13:36;61.10;;;37.72;;
71679;SDS011;59512;42.662;23.254;2022-12-29T00:16:21;62.03;;;37.63;;
71679;SDS011;59512;42.662;23.254;2022-12-29T00:18:46;61.53;;;36.97;;
71679;SDS011;59512;42.662;23.254;2022-12-29T00:21:15;64.73;;;39.30;;
71679;SDS011;59512;42.662;23.254;2022-12-29T00:24:00;66.38;;;39.20;;
71679;SDS011;59512;42.662;23.254;2022-12-29T00:26:45;64.97;;;39.58;;
71679;SDS011;59512;42.662;23.254;2022-12-29T00:29:28;64.85;;;39.00;;
71679;SDS011;59512;42.662;23.254;2022-12-29T00:32:12;66.30;;;38.67;;
71679;SDS011;59512;42.662;23.254;2022-12-29T00:34:56;63.87;;;39.43;;
71679;SDS011;59512;42.662;23.254;2022-12-29T00:37:37;76.05;;;44.88;;
71679;SDS011;59512;42.662;23.254;2022-12-29T00:40:23;67.13;;;41.78;;
71679;SDS011;59512;42.662;23.254;2022-12-29T00:43:07;66.30;;;41.53;;
71679;SDS011;59512;42.662;23.254;2022-12-29T00:45:51;72.20;;;43.33;;
71679;SDS011;59512;42.662;23.254;2022-12-29T00:48:17;74.67;;;44.07;;
71679;SDS011;59512;42.662;23.254;2022-12-29T00:51:05;94.55;;;53.08;;
71679;SDS011;59512;42.662;23.254;2022-12-29T00:53:31;103.10;;;54.90;;
71679;SDS011;59512;42.662;23.254;2022-12-29T00:55:57;73.82;;;42.22;;
71679;SDS011;59512;42.662;23.254;2022-12-29T00:58:23;59.45;;;37.47;;
71679;SDS011;59512;42.662;23.254;2022-12-29T01:00:48;62.53;;;38.33;;
71679;SDS011;59512;42.662;23.254;2022-12-29T01:03:13;69.10;;;40.30;;
71679;SDS011;59512;42.662;23.254;2022-12-29T01:05:39;62.07;;;37.63;;
71679;SDS011;59512;42.662;23.254;2022-12-29T01:08:04;56.00;;;34.47;;
71679;SDS011;59512;42.662;23.254;2022-12-29T01:10:30;58.50;;;36.22;;
71679;SDS011;59512;42.662;23.254;2022-12-29T01:12:55;63.47;;;38.65;;
71679;SDS011;59512;42.662;23.254;2022-12-29T01:15:20;63.10;;;37.47;;
71679;SDS011;59512;42.662;23.254;2022-12-29T01:17:46;60.37;;;36.50;;
71679;SDS011;59512;42.662;23.254;2022-12-29T01:20:11;65.23;;;38.50;;
71679;SDS011;59512;42.662;23.254;2022-12-29T01:22:37;62.92;;;38.28;;
71679;SDS011;59512;42.662;23.254;2022-12-29T01:25:03;64.60;;;37.67;;
71679;SDS011;59512;42.662;23.254;2022-12-29T01:27:29;64.93;;;39.10;;
71679;SDS011;59512;42.662;23.254;2022-12-29T01:29:55;66.30;;;39.73;;
71679;SDS011;59512;42.662;23.254;2022-12-29T01:32:20;60.70;;;37.00;;
71679;SDS011;59512;42.662;23.254;2022-12-29T01:34:46;56.83;;;35.50;;
71679;SDS011;59512;42.662;23.254;2022-12-29T01:37:11;62.80;;;37.07;;
71679;SDS011;59512;42.662;23.254;2022-12-29T01:39:36;69.17;;;41.80;;
71679;SDS011;59512;42.662;23.254;2022-12-29T01:42:02;62.60;;;37.97;;
71679;SDS011;59512;42.662;23.254;2022-12-29T01:47:26;67.20;;;40.87;;
71679;SDS011;59512;42.662;23.254;2022-12-29T01:49:54;62.22;;;38.50;;
71679;SDS011;59512;42.662;23.254;2022-12-29T01:52:21;56.42;;;36.50;;
71679;SDS011;59512;42.662;23.254;2022-12-29T01:54:48;61.28;;;37.05;;
71679;SDS011;59512;42.662;23.254;2022-12-29T01:57:17;58.05;;;33.97;;
71679;SDS011;59512;42.662;23.254;2022-12-29T01:59:48;54.73;;;33.60;;
71679;SDS011;59512;42.662;23.254;2022-12-29T02:02:17;58.15;;;36.17;;
71679;SDS011;59512;42.662;23.254;2022-12-29T02:04:42;61.53;;;37.50;;
71679;SDS011;59512;42.662;23.254;2022-12-29T02:07:13;57.63;;;35.20;;
71679;SDS011;59512;42.662;23.254;2022-12-29T02:09:42;56.28;;;35.97;;
71679;SDS011;59512;42.662;23.254;2022-12-29T02:12:07;61.30;;;37.00;;
71679;SDS011;59512;42.662;23.254;2022-12-29T02:14:33;71.90;;;41.47;;
71679;SDS011;59512;42.662;23.254;2022-12-29T02:22:43;61.90;;;36.78;;
71679;SDS011;59512;42.662;23.254;2022-12-29T02:39:00;68.60;;;40.00;;
71679;SDS011;59512;42.662;23.254;2022-12-29T02:47:15;58.93;;;35.67;;
71679;SDS011;59512;42.662;23.254;2022-12-29T02:52:32;58.17;;;34.97;;
71679;SDS011;59512;42.662;23.254;2022-12-29T02:55:00;59.00;;;35.08;;
71679;SDS011;59512;42.662;23.254;2022-12-29T02:59:53;54.97;;;33.57;;
71679;SDS011;59512;42.662;23.254;2022-12-29T03:13:43;56.55;;;33.92;;
71679;SDS011;59512;42.662;23.254;2022-12-29T03:16:31;50.90;;;31.60;;
71679;SDS011;59512;42.662;23.254;2022-12-29T03:19:10;54.25;;;32.45;;
71679;SDS011;59512;42.662;23.254;2022-12-29T03:21:56;56.13;;;33.90;;
71679;SDS011;59512;42.662;23.254;2022-12-29T03:24:43;56.77;;;34.20;;
71679;SDS011;59512;42.662;23.254;2022-12-29T03:27:13;51.10;;;31.73;;
71679;SDS011;59512;42.662;23.254;2022-12-29T03:29:44;53.50;;;33.55;;
71679;SDS011;59512;42.662;23.254;2022-12-29T03:32:11;54.88;;;33.63;;
71679;SDS011;59512;42.662;23.254;2022-12-29T03:34:38;53.45;;;31.83;;
71679;SDS011;59512;42.662;23.254;2022-12-29T03:37:14;56.70;;;33.00;;
71679;SDS011;59512;42.662;23.254;2022-12-29T03:39:41;56.65;;;34.92;;
71679;SDS011;59512;42.662;23.254;2022-12-29T03:42:11;51.92;;;32.90;;
71679;SDS011;59512;42.662;23.254;2022-12-29T03:44:40;49.00;;;30.73;;
71679;SDS011;59512;42.662;23.254;2022-12-29T03:47:06;53.17;;;33.20;;
71679;SDS011;59512;42.662;23.254;2022-12-29T03:49:32;60.45;;;37.97;;
71679;SDS011;59512;42.662;23.254;2022-12-29T03:51:57;61.07;;;37.47;;
71679;SDS011;59512;42.662;23.254;2022-12-29T03:54:23;61.47;;;36.07;;
71679;SDS011;59512;42.662;23.254;2022-12-29T03:56:49;87.22;;;44.75;;
71679;SDS011;59512;42.662;23.254;2022-12-29T03:59:14;69.10;;;43.33;;
71679;SDS011;59512;42.662;23.254;2022-12-29T04:01:40;64.93;;;38.87;;
71679;SDS011;59512;42.662;23.254;2022-12-29T04:04:05;81.93;;;44.05;;
71679;SDS011;59512;42.662;23.254;2022-12-29T04:06:30;71.03;;;39.60;;
71679;SDS011;59512;42.662;23.254;2022-12-29T04:08:56;70.33;;;40.53;;
71679;SDS011;59512;42.662;23.254;2022-12-29T04:11:21;69.43;;;38.27;;
71679;SDS011;59512;42.662;23.254;2022-12-29T04:13:47;62.67;;;35.38;;
71679;SDS011;59512;42.662;23.254;2022-12-29T04:16:13;57.87;;;35.30;;
71679;SDS011;59512;42.662;23.254;2022-12-29T04:18:38;66.93;;;39.87;;
71679;SDS011;59512;42.662;23.254;2022-12-29T04:21:03;77.37;;;45.50;;
71679;SDS011;59512;42.662;23.254;2022-12-29T04:23:30;74.35;;;41.83;;
71679;SDS011;59512;42.662;23.254;2022-12-29T04:25:57;138.43;;;75.83;;
71679;SDS011;59512;42.662;23.254;2022-12-29T04:28:23;81.40;;;47.45;;
71679;SDS011;59512;42.662;23.254;2022-12-29T04:30:48;79.75;;;48.00;;
71679;SDS011;59512;42.662;23.254;2022-12-29T04:33:14;74.10;;;42.17;;
71679;SDS011;59512;42.662;23.254;2022-12-29T04:35:39;64.77;;;38.47;;
71679;SDS011;59512;42.662;23.254;2022-12-29T04:38:05;70.50;;;39.37;;
71679;SDS011;59512;42.662;23.254;2022-12-29T04:40:30;59.10;;;36.90;;
71679;SDS011;59512;42.662;23.254;2022-12-29T04:42:56;66.03;;;38.92;;
71679;SDS011;59512;42.662;23.254;2022-12-29T04:45:21;62.30;;;36.75;;
71679;SDS011;59512;42.662;23.254;2022-12-29T04:47:47;64.27;;;37.50;;
71679;SDS011;59512;42.662;23.254;2022-12-29T04:50:12;62.87;;;39.00;;
71679;SDS011;59512;42.662;23.254;2022-12-29T04:52:38;76.97;;;43.10;;
71679;SDS011;59512;42.662;23.254;2022-12-29T04:55:04;65.28;;;38.00;;
71679;SDS011;59512;42.662;23.254;2022-12-29T04:57:30;67.45;;;41.50;;
71679;SDS011;59512;42.662;23.254;2022-12-29T04:59:55;56.40;;;35.23;;
71679;SDS011;59512;42.662;23.254;2022-12-29T05:02:21;63.90;;;37.63;;
71679;SDS011;59512;42.662;23.254;2022-12-29T05:04:46;58.47;;;34.72;;
71679;SDS011;59512;42.662;23.254;2022-12-29T05:07:12;63.57;;;38.57;;
71679;SDS011;59512;42.662;23.254;2022-12-29T05:09:38;65.20;;;39.60;;
71679;SDS011;59512;42.662;23.254;2022-12-29T05:12:03;70.95;;;42.67;;
71679;SDS011;59512;42.662;23.254;2022-12-29T05:14:29;67.47;;;41.27;;
71679;SDS011;59512;42.662;23.254;2022-12-29T05:16:54;58.20;;;36.72;;
71679;SDS011;59512;42.662;23.254;2022-12-29T05:19:20;59.57;;;36.70;;
71679;SDS011;59512;42.662;23.254;2022-12-29T05:21:45;87.80;;;52.60;;
71679;SDS011;59512;42.662;23.254;2022-12-29T05:24:11;70.47;;;44.20;;
71679;SDS011;59512;42.662;23.254;2022-12-29T05:26:36;72.00;;;44.03;;
71679;SDS011;59512;42.662;23.254;2022-12-29T05:29:01;70.10;;;44.25;;
71679;SDS011;59512;42.662;23.254;2022-12-29T05:31:27;64.97;;;39.97;;
71679;SDS011;59512;42.662;23.254;2022-12-29T05:33:52;59.33;;;37.73;;
71679;SDS011;59512;42.662;23.254;2022-12-29T05:36:18;60.87;;;37.80;;
71679;SDS011;59512;42.662;23.254;2022-12-29T05:38:44;66.30;;;40.20;;
71679;SDS011;59512;42.662;23.254;2022-12-29T05:41:09;63.00;;;36.97;;
71679;SDS011;59512;42.662;23.254;2022-12-29T05:43:35;56.13;;;34.57;;
71679;SDS011;59512;42.662;23.254;2022-12-29T05:46:00;58.10;;;35.97;;
71679;SDS011;59512;42.662;23.254;2022-12-29T05:48:26;58.20;;;36.22;;
71679;SDS011;59512;42.662;23.254;2022-12-29T05:50:51;60.03;;;37.63;;
71679;SDS011;59512;42.662;23.254;2022-12-29T05:53:17;61.87;;;38.47;;
71679;SDS011;59512;42.662;23.254;2022-12-29T05:55:43;61.20;;;36.88;;
71679;SDS011;59512;42.662;23.254;2022-12-29T05:58:09;61.38;;;37.10;;
71679;SDS011;59512;42.662;23.254;2022-12-29T06:00:35;59.30;;;37.10;;
71679;SDS011;59512;42.662;23.254;2022-12-29T06:03:00;61.83;;;37.53;;
71679;SDS011;59512;42.662;23.254;2022-12-29T06:05:25;55.63;;;33.93;;
71679;SDS011;59512;42.662;23.254;2022-12-29T06:07:51;65.53;;;38.75;;
71679;SDS011;59512;42.662;23.254;2022-12-29T06:10:16;71.40;;;43.50;;
71679;SDS011;59512;42.662;23.254;2022-12-29T06:12:42;85.60;;;51.60;;
71679;SDS011;59512;42.662;23.254;2022-12-29T06:15:07;95.93;;;55.67;;
71679;SDS011;59512;42.662;23.254;2022-12-29T06:17:33;86.90;;;50.50;;
71679;SDS011;59512;42.662;23.254;2022-12-29T06:19:59;74.22;;;47.05;;
71679;SDS011;59512;42.662;23.254;2022-12-29T06:22:24;72.22;;;42.53;;
71679;SDS011;59512;42.662;23.254;2022-12-29T06:24:50;72.77;;;43.20;;
71679;SDS011;59512;42.662;23.254;2022-12-29T06:27:15;73.47;;;43.20;;
71679;SDS011;59512;42.662;23.254;2022-12-29T06:29:41;67.40;;;42.27;;
71679;SDS011;59512;42.662;23.254;2022-12-29T06:32:07;60.45;;;38.05;;
71679;SDS011;59512;42.662;23.254;2022-12-29T06:34:33;66.17;;;40.57;;
71679;SDS011;59512;42.662;23.254;2022-12-29T06:36:58;61.03;;;36.72;;
71679;SDS011;59512;42.662;23.254;2022-12-29T06:39:24;62.20;;;37.93;;
71679;SDS011;59512;42.662;23.254;2022-12-29T06:41:51;68.67;;;41.50;;
71679;SDS011;59512;42.662;23.254;2022-12-29T06:44:18;75.53;;;46.28;;
71679;SDS011;59512;42.662;23.254;2022-12-29T06:46:43;79.00;;;45.10;;
71679;SDS011;59512;42.662;23.254;2022-12-29T06:49:09;74.67;;;44.73;;
71679;SDS011;59512;42.662;23.254;2022-12-29T06:51:34;66.63;;;41.43;;
71679;SDS011;59512;42.662;23.254;2022-12-29T06:54:00;69.00;;;42.00;;
71679;SDS011;59512;42.662;23.254;2022-12-29T06:56:25;63.20;;;38.80;;
71679;SDS011;59512;42.662;23.254;2022-12-29T06:58:50;57.37;;;35.63;;
71679;SDS011;59512;42.662;23.254;2022-12-29T07:01:17;54.55;;;33.95;;
71679;SDS011;59512;42.662;23.254;2022-12-29T07:03:42;51.70;;;31.63;;
71679;SDS011;59512;42.662;23.254;2022-12-29T07:06:08;60.83;;;35.40;;
71679;SDS011;59512;42.662;23.254;2022-12-29T07:08:33;53.50;;;32.47;;
71679;SDS011;59512;42.662;23.254;2022-12-29T07:10:59;51.93;;;32.77;;
71679;SDS011;59512;42.662;23.254;2022-12-29T07:13:24;54.38;;;33.33;;
71679;SDS011;59512;42.662;23.254;2022-12-29T07:15:49;53.00;;;33.03;;
71679;SDS011;59512;42.662;23.254;2022-12-29T07:18:15;56.33;;;33.37;;
71679;SDS011;59512;42.662;23.254;2022-12-29T07:20:40;53.87;;;33.00;;
71679;SDS011;59512;42.662;23.254;2022-12-29T07:23:05;53.23;;;32.77;;
71679;SDS011;59512;42.662;23.254;2022-12-29T07:25:31;56.77;;;34.47;;
71679;SDS011;59512;42.662;23.254;2022-12-29T07:27:56;54.78;;;34.50;;
71679;SDS011;59512;42.662;23.254;2022-12-29T07:30:22;53.63;;;32.28;;
71679;SDS011;59512;42.662;23.254;2022-12-29T07:32:47;46.53;;;30.20;;
71679;SDS011;59512;42.662;23.254;2022-12-29T07:35:13;48.47;;;30.73;;
71679;SDS011;59512;42.662;23.254;2022-12-29T07:37:38;45.03;;;28.40;;
71679;SDS011;59512;42.662;23.254;2022-12-29T07:40:04;46.55;;;28.88;;
71679;SDS011;59512;42.662;23.254;2022-12-29T07:42:30;42.38;;;27.58;;
71679;SDS011;59512;42.662;23.254;2022-12-29T07:44:56;42.42;;;27.20;;
71679;SDS011;59512;42.662;23.254;2022-12-29T07:47:21;41.87;;;26.77;;
71679;SDS011;59512;42.662;23.254;2022-12-29T07:49:47;44.20;;;28.43;;
71679;SDS011;59512;42.662;23.254;2022-12-29T07:52:12;44.73;;;27.67;;
71679;SDS011;59512;42.662;23.254;2022-12-29T07:54:37;45.30;;;28.60;;
71679;SDS011;59512;42.662;23.254;2022-12-29T07:57:03;43.23;;;27.47;;
71679;SDS011;59512;42.662;23.254;2022-12-29T07:59:29;45.43;;;27.40;;
71679;SDS011;59512;42.662;23.254;2022-12-29T08:01:55;40.28;;;25.75;;
71679;SDS011;59512;42.662;23.254;2022-12-29T08:04:20;43.83;;;27.67;;
71679;SDS011;59512;42.662;23.254;2022-12-29T08:06:46;43.80;;;26.50;;
71679;SDS011;59512;42.662;23.254;2022-12-29T08:09:11;41.87;;;27.87;;
71679;SDS011;59512;42.662;23.254;2022-12-29T08:11:37;41.83;;;27.27;;
71679;SDS011;59512;42.662;23.254;2022-12-29T08:14:03;48.22;;;28.52;;
71679;SDS011;59512;42.662;23.254;2022-12-29T08:16:29;41.83;;;25.77;;
71679;SDS011;59512;42.662;23.254;2022-12-29T08:18:55;47.17;;;27.67;;
71679;SDS011;59512;42.662;23.254;2022-12-29T08:21:21;43.55;;;26.00;;
71679;SDS011;59512;42.662;23.254;2022-12-29T08:23:47;45.90;;;27.57;;
71679;SDS011;59512;42.662;23.254;2022-12-29T08:26:12;40.08;;;26.77;;
71679;SDS011;59512;42.662;23.254;2022-12-29T08:28:38;43.70;;;26.83;;
71679;SDS011;59512;42.662;23.254;2022-12-29T08:31:03;44.87;;;27.13;;
71679;SDS011;59512;42.662;23.254;2022-12-29T08:33:29;41.70;;;25.40;;
71679;SDS011;59512;42.662;23.254;2022-12-29T08:36:01;40.77;;;24.83;;
71679;SDS011;59512;42.662;23.254;2022-12-29T08:38:28;40.38;;;25.40;;
71679;SDS011;59512;42.662;23.254;2022-12-29T08:40:54;40.75;;;26.77;;
71679;SDS011;59512;42.662;23.254;2022-12-29T08:43:20;42.77;;;26.20;;
71679;SDS011;59512;42.662;23.254;2022-12-29T08:45:45;43.67;;;25.92;;
71679;SDS011;59512;42.662;23.254;2022-12-29T08:48:11;43.50;;;26.93;;
71679;SDS011;59512;42.662;23.254;2022-12-29T08:50:36;47.10;;;29.57;;
71679;SDS011;59512;42.662;23.254;2022-12-29T08:53:02;47.00;;;28.73;;
71679;SDS011;59512;42.662;23.254;2022-12-29T08:55:27;46.03;;;28.17;;
71679;SDS011;59512;42.662;23.254;2022-12-29T08:57:53;46.90;;;28.40;;
71679;SDS011;59512;42.662;23.254;2022-12-29T09:00:18;46.13;;;28.70;;
71679;SDS011;59512;42.662;23.254;2022-12-29T09:02:45;43.08;;;28.45;;
71679;SDS011;59512;42.662;23.254;2022-12-29T09:05:10;44.93;;;27.83;;
71679;SDS011;59512;42.662;23.254;2022-12-29T09:07:36;45.97;;;28.30;;
71679;SDS011;59512;42.662;23.254;2022-12-29T09:10:01;42.57;;;27.67;;
71679;SDS011;59512;42.662;23.254;2022-12-29T09:12:27;43.83;;;27.95;;
71679;SDS011;59512;42.662;23.254;2022-12-29T09:14:52;45.33;;;27.20;;
71679;SDS011;59512;42.662;23.254;2022-12-29T09:17:18;41.20;;;25.53;;
71679;SDS011;59512;42.662;23.254;2022-12-29T09:20:02;39.25;;;24.42;;
71679;SDS011;59512;42.662;23.254;2022-12-29T09:22:28;37.58;;;23.60;;
71679;SDS011;59512;42.662;23.254;2022-12-29T09:24:54;38.83;;;24.20;;
71679;SDS011;59512;42.662;23.254;2022-12-29T09:27:19;38.63;;;23.27;;
71679;SDS011;59512;42.662;23.254;2022-12-29T09:29:44;37.70;;;22.03;;
71679;SDS011;59512;42.662;23.254;2022-12-29T09:32:10;36.03;;;21.42;;
71679;SDS011;59512;42.662;23.254;2022-12-29T09:34:35;37.55;;;22.25;;
71679;SDS011;59512;42.662;23.254;2022-12-29T09:37:01;33.10;;;21.77;;
71679;SDS011;59512;42.662;23.254;2022-12-29T09:39:26;37.33;;;22.30;;
71679;SDS011;59512;42.662;23.254;2022-12-29T09:44:26;36.35;;;21.52;;
71679;SDS011;59512;42.662;23.254;2022-12-29T09:46:55;33.05;;;20.42;;
71679;SDS011;59512;42.662;23.254;2022-12-29T09:49:42;34.47;;;20.92;;
71679;SDS011;59512;42.662;23.254;2022-12-29T09:52:15;37.13;;;20.70;;
71679;SDS011;59512;42.662;23.254;2022-12-29T09:54:59;32.78;;;20.27;;
71679;SDS011;59512;42.662;23.254;2022-12-29T10:00:32;32.72;;;19.40;;
71679;SDS011;59512;42.662;23.254;2022-12-29T10:03:17;31.27;;;19.33;;
71679;SDS011;59512;42.662;23.254;2022-12-29T10:09:01;33.83;;;17.95;;
71679;SDS011;59512;42.662;23.254;2022-12-29T10:17:01;34.97;;;19.35;;
71679;SDS011;59512;42.662;23.254;2022-12-29T10:20:01;32.50;;;18.70;;
71679;SDS011;59512;42.662;23.254;2022-12-29T10:25:08;35.72;;;19.15;;
71679;SDS011;59512;42.662;23.254;2022-12-29T10:27:38;31.98;;;18.48;;
71679;SDS011;59512;42.662;23.254;2022-12-29T10:30:04;31.00;;;19.33;;
71679;SDS011;59512;42.662;23.254;2022-12-29T10:32:37;33.20;;;18.70;;
71679;SDS011;59512;42.662;23.254;2022-12-29T10:35:06;31.90;;;18.52;;
71679;SDS011;59512;42.662;23.254;2022-12-29T10:37:49;33.33;;;19.58;;
71679;SDS011;59512;42.662;23.254;2022-12-29T10:40:21;34.33;;;19.57;;
71679;SDS011;59512;42.662;23.254;2022-12-29T10:42:55;32.80;;;20.33;;
71679;SDS011;59512;42.662;23.254;2022-12-29T10:45:22;36.03;;;21.58;;
71679;SDS011;59512;42.662;23.254;2022-12-29T10:48:00;41.03;;;24.40;;
71679;SDS011;59512;42.662;23.254;2022-12-29T10:50:28;38.60;;;24.65;;
71679;SDS011;59512;42.662;23.254;2022-12-29T10:53:00;42.77;;;24.37;;
71679;SDS011;59512;42.662;23.254;2022-12-29T10:55:28;36.65;;;22.92;;
71679;SDS011;59512;42.662;23.254;2022-12-29T10:57:59;37.88;;;23.55;;
71679;SDS011;59512;42.662;23.254;2022-12-29T11:00:29;35.00;;;21.73;;
71679;SDS011;59512;42.662;23.254;2022-12-29T11:07:57;40.90;;;24.20;;
71679;SDS011;59512;42.662;23.254;2022-12-29T11:13:00;38.70;;;24.13;;
71679;SDS011;59512;42.662;23.254;2022-12-29T11:15:36;41.53;;;24.92;;
71679;SDS011;59512;42.662;23.254;2022-12-29T11:18:04;41.42;;;25.05;;
71679;SDS011;59512;42.662;23.254;2022-12-29T11:22:54;39.40;;;24.20;;
71679;SDS011;59512;42.662;23.254;2022-12-29T11:25:20;36.90;;;23.55;;
71679;SDS011;59512;42.662;23.254;2022-12-29T11:27:55;42.50;;;26.23;;
71679;SDS011;59512;42.662;23.254;2022-12-29T11:30:25;45.25;;;27.38;;
71679;SDS011;59512;42.662;23.254;2022-12-29T11:32:53;46.40;;;26.40;;
71679;SDS011;59512;42.662;23.254;2022-12-29T11:35:32;44.38;;;27.13;;
71679;SDS011;59512;42.662;23.254;2022-12-29T11:37:58;45.97;;;26.70;;
71679;SDS011;59512;42.662;23.254;2022-12-29T11:40:25;46.95;;;26.63;;
71679;SDS011;59512;42.662;23.254;2022-12-29T11:42:51;45.57;;;26.83;;
71679;SDS011;59512;42.662;23.254;2022-12-29T11:45:18;41.63;;;26.75;;
71679;SDS011;59512;42.662;23.254;2022-12-29T11:47:52;44.97;;;25.55;;
71679;SDS011;59512;42.662;23.254;2022-12-29T11:50:21;46.45;;;26.83;;
71679;SDS011;59512;42.662;23.254;2022-12-29T11:52:50;43.23;;;26.00;;
71679;SDS011;59512;42.662;23.254;2022-12-29T11:55:23;42.65;;;25.10;;
71679;SDS011;59512;42.662;23.254;2022-12-29T11:57:50;43.95;;;25.77;;
71679;SDS011;59512;42.662;23.254;2022-12-29T12:00:18;43.53;;;25.83;;
71679;SDS011;59512;42.662;23.254;2022-12-29T12:05:41;42.67;;;26.47;;
71679;SDS011;59512;42.662;23.254;2022-12-29T12:11:07;44.80;;;24.35;;
71679;SDS011;59512;42.662;23.254;2022-12-29T12:16:41;39.83;;;22.70;;
71679;SDS011;59512;42.662;23.254;2022-12-29T12:19:13;42.07;;;22.57;;
71679;SDS011;59512;42.662;23.254;2022-12-29T12:21:50;42.15;;;23.20;;
71679;SDS011;59512;42.662;23.254;2022-12-29T12:26:56;38.17;;;22.40;;
71679;SDS011;59512;42.662;23.254;2022-12-29T12:29:36;42.33;;;23.05;;
71679;SDS011;59512;42.662;23.254;2022-12-29T12:32:09;58.37;;;33.10;;
71679;SDS011;59512;42.662;23.254;2022-12-29T12:34:40;59.85;;;35.47;;
71679;SDS011;59512;42.662;23.254;2022-12-29T12:50:55;43.35;;;25.45;;
71679;SDS011;59512;42.662;23.254;2022-12-29T12:56:28;49.28;;;26.33;;
71679;SDS011;59512;42.662;23.254;2022-12-29T12:59:14;43.47;;;25.90;;
71679;SDS011;59512;42.662;23.254;2022-12-29T13:01:55;46.85;;;25.77;;
71679;SDS011;59512;42.662;23.254;2022-12-29T13:04:37;45.42;;;26.08;;
71679;SDS011;59512;42.662;23.254;2022-12-29T13:20:54;38.33;;;21.75;;
71679;SDS011;59512;42.662;23.254;2022-12-29T13:23:34;37.47;;;21.52;;
71679;SDS011;59512;42.662;23.254;2022-12-29T13:28:33;36.72;;;20.95;;
71679;SDS011;59512;42.662;23.254;2022-12-29T13:36:53;36.53;;;20.98;;
71679;SDS011;59512;42.662;23.254;2022-12-29T13:39:21;37.97;;;21.43;;
71679;SDS011;59512;42.662;23.254;2022-12-29T13:41:55;37.05;;;21.15;;
71679;SDS011;59512;42.662;23.254;2022-12-29T13:44:34;40.63;;;22.17;;
71679;SDS011;59512;42.662;23.254;2022-12-29T13:47:10;40.83;;;22.98;;
71679;SDS011;59512;42.662;23.254;2022-12-29T13:49:47;41.63;;;23.50;;
71679;SDS011;59512;42.662;23.254;2022-12-29T13:52:16;42.27;;;23.37;;
71679;SDS011;59512;42.662;23.254;2022-12-29T13:54:58;41.13;;;22.48;;
71679;SDS011;59512;42.662;23.254;2022-12-29T14:00:15;45.22;;;25.45;;
71679;SDS011;59512;42.662;23.254;2022-12-29T14:02:46;46.70;;;23.33;;
71679;SDS011;59512;42.662;23.254;2022-12-29T14:05:29;46.80;;;27.38;;
71679;SDS011;59512;42.662;23.254;2022-12-29T14:07:57;43.95;;;24.10;;
71679;SDS011;59512;42.662;23.254;2022-12-29T14:13:13;46.58;;;26.42;;
71679;SDS011;59512;42.662;23.254;2022-12-29T14:15:43;52.53;;;30.67;;
71679;SDS011;59512;42.662;23.254;2022-12-29T14:18:11;50.45;;;29.05;;
71679;SDS011;59512;42.662;23.254;2022-12-29T14:28:31;50.20;;;26.90;;
71679;SDS011;59512;42.662;23.254;2022-12-29T14:31:39;61.70;;;37.67;;
71679;SDS011;59512;42.662;23.254;2022-12-29T14:36:37;59.00;;;33.47;;
71679;SDS011;59512;42.662;23.254;2022-12-29T14:39:03;62.08;;;34.67;;
71679;SDS011;59512;42.662;23.254;2022-12-29T14:46:46;67.57;;;40.30;;
71679;SDS011;59512;42.662;23.254;2022-12-29T14:49:20;70.25;;;41.53;;
71679;SDS011;59512;42.662;23.254;2022-12-29T14:51:48;61.03;;;37.33;;
71679;SDS011;59512;42.662;23.254;2022-12-29T14:57:05;63.00;;;34.80;;
71679;SDS011;59512;42.662;23.254;2022-12-29T14:59:32;60.00;;;33.22;;
71679;SDS011;59512;42.662;23.254;2022-12-29T15:01:59;65.22;;;34.50;;
71679;SDS011;59512;42.662;23.254;2022-12-29T15:04:33;64.47;;;31.38;;
71679;SDS011;59512;42.662;23.254;2022-12-29T15:06:59;55.47;;;31.07;;
71679;SDS011;59512;42.662;23.254;2022-12-29T15:14:56;59.05;;;36.50;;
71679;SDS011;59512;42.662;23.254;2022-12-29T15:19:50;68.67;;;39.13;;
71679;SDS011;59512;42.662;23.254;2022-12-29T15:22:15;68.10;;;39.60;;
71679;SDS011;59512;42.662;23.254;2022-12-29T15:24:41;63.03;;;37.43;;
71679;SDS011;59512;42.662;23.254;2022-12-29T15:27:10;64.53;;;37.65;;
71679;SDS011;59512;42.662;23.254;2022-12-29T15:29:42;76.95;;;42.63;;
71679;SDS011;59512;42.662;23.254;2022-12-29T15:34:40;69.25;;;37.42;;
71679;SDS011;59512;42.662;23.254;2022-12-29T15:37:06;63.47;;;37.00;;
71679;SDS011;59512;42.662;23.254;2022-12-29T15:39:33;68.85;;;38.05;;
71679;SDS011;59512;42.662;23.254;2022-12-29T15:49:50;67.38;;;38.05;;
71679;SDS011;59512;42.662;23.254;2022-12-29T15:52:19;74.43;;;41.33;;
71679;SDS011;59512;42.662;23.254;2022-12-29T15:54:45;77.97;;;41.00;;
71679;SDS011;59512;42.662;23.254;2022-12-29T15:57:23;73.15;;;41.25;;
71679;SDS011;59512;42.662;23.254;2022-12-29T15:59:50;86.05;;;46.25;;
71679;SDS011;59512;42.662;23.254;2022-12-29T16:02:16;68.90;;;37.20;;
71679;SDS011;59512;42.662;23.254;2022-12-29T16:04:41;96.75;;;49.83;;
71679;SDS011;59512;42.662;23.254;2022-12-29T16:09:48;94.90;;;51.72;;
71679;SDS011;59512;42.662;23.254;2022-12-29T16:12:23;75.78;;;39.75;;
71679;SDS011;59512;42.662;23.254;2022-12-29T16:14:51;72.07;;;39.00;;
71679;SDS011;59512;42.662;23.254;2022-12-29T16:17:20;70.00;;;36.57;;
71679;SDS011;59512;42.662;23.254;2022-12-29T16:19:51;80.00;;;41.72;;
71679;SDS011;59512;42.662;23.254;2022-12-29T16:24:57;69.35;;;36.25;;
71679;SDS011;59512;42.662;23.254;2022-12-29T16:27:45;73.85;;;38.88;;
71679;SDS011;59512;42.662;23.254;2022-12-29T16:30:43;64.43;;;37.50;;
71679;SDS011;59512;42.662;23.254;2022-12-29T16:33:03;70.57;;;40.20;;
71679;SDS011;59512;42.662;23.254;2022-12-29T16:35:45;69.57;;;38.00;;
71679;SDS011;59512;42.662;23.254;2022-12-29T16:38:15;74.45;;;42.03;;
71679;SDS011;59512;42.662;23.254;2022-12-29T16:43:21;77.50;;;43.10;;
71679;SDS011;59512;42.662;23.254;2022-12-29T16:50:38;72.60;;;41.80;;
71679;SDS011;59512;42.662;23.254;2022-12-29T16:53:05;67.80;;;39.75;;
71679;SDS011;59512;42.662;23.254;2022-12-29T16:55:31;66.72;;;39.00;;
71679;SDS011;59512;42.662;23.254;2022-12-29T16:57:57;60.85;;;36.10;;
71679;SDS011;59512;42.662;23.254;2022-12-29T17:00:24;61.00;;;36.83;;
71679;SDS011;59512;42.662;23.254;2022-12-29T17:02:52;80.03;;;38.97;;
71679;SDS011;59512;42.662;23.254;2022-12-29T17:05:19;70.85;;;38.53;;
71679;SDS011;59512;42.662;23.254;2022-12-29T17:07:45;69.17;;;39.53;;
71679;SDS011;59512;42.662;23.254;2022-12-29T17:10:11;67.88;;;39.13;;
71679;SDS011;59512;42.662;23.254;2022-12-29T17:12:37;70.35;;;41.30;;
71679;SDS011;59512;42.662;23.254;2022-12-29T17:15:14;55.07;;;32.83;;